createdAt,value
2022-09-02T00:01:29.719Z,67.34
2022-09-02T00:04:01.624Z,66.77
2022-09-02T00:06:31.334Z,67.12
2022-09-02T00:09:00.262Z,66.58
2022-09-02T00:11:30.880Z,66.82
2022-09-02T00:13:59.685Z,67.08
2022-09-02T00:16:27.657Z,67.22
2022-09-02T00:18:56.510Z,67.16
2022-09-02T00:21:26.942Z,67.42
2022-09-02T00:23:55.048Z,67.89
2022-09-02T00:26:23.344Z,68.03
2022-09-02T00:28:56.280Z,68.06
2022-09-02T00:31:25.676Z,68.24
2022-09-02T00:33:53.671Z,68.45
2022-09-02T00:36:22.275Z,68.11
2022-09-02T00:38:51.875Z,68.56
2022-09-02T00:41:24.207Z,68.53
2022-09-02T00:43:55.428Z,68.23
2022-09-02T00:46:25.618Z,67.94
2022-09-02T00:48:59.552Z,67.91
2022-09-02T00:51:30.274Z,68.10
2022-09-02T00:53:59.688Z,68.35
2022-09-02T00:56:30.565Z,68.63
2022-09-02T00:58:59.167Z,68.61
2022-09-02T01:01:28.139Z,68.88
2022-09-02T01:03:56.590Z,68.66
2022-09-02T01:06:28.670Z,69.12
2022-09-02T01:09:02.748Z,68.60
2022-09-02T01:11:39.029Z,69.38
2022-09-02T01:14:07.697Z,69.10
2022-09-02T01:16:42.269Z,69.60
2022-09-02T01:19:17.939Z,69.74
2022-09-02T01:21:49.134Z,69.78
2022-09-02T01:24:18.626Z,69.64
2022-09-02T01:26:46.531Z,69.22
2022-09-02T01:29:16.473Z,69.31
2022-09-02T01:31:44.685Z,69.57
2022-09-02T01:34:13.020Z,70.61
2022-09-02T01:36:42.526Z,70.04
2022-09-02T01:39:13.632Z,70.44
2022-09-02T01:41:42.078Z,70.01
2022-09-02T01:44:11.369Z,70.13
2022-09-02T01:46:39.649Z,70.14
2022-09-02T01:49:07.615Z,70.24
2022-09-02T01:51:35.881Z,70.68
2022-09-02T01:54:04.512Z,70.94
2022-09-02T01:56:33.829Z,71.25
2022-09-02T01:59:02.587Z,71.44
2022-09-02T02:01:30.690Z,71.95
2022-09-02T02:03:58.677Z,71.67
2022-09-02T02:06:26.573Z,71.79
2022-09-02T02:08:55.627Z,72.10
2022-09-02T02:11:25.779Z,71.85
2022-09-02T02:13:55.076Z,72.06
2022-09-02T02:16:23.015Z,72.18
2022-09-02T02:18:50.946Z,71.88
2022-09-02T02:21:18.879Z,72.44
2022-09-02T02:23:48.820Z,72.30
2022-09-02T02:26:16.807Z,72.15
2022-09-02T02:28:44.776Z,72.09
2022-09-02T02:31:14.285Z,72.21
2022-09-02T02:33:42.287Z,72.39
2022-09-02T02:36:10.792Z,72.84
2022-09-02T02:38:39.785Z,72.91
2022-09-02T02:41:07.913Z,72.36
2022-09-02T02:43:36.512Z,72.17
2022-09-02T02:46:05.353Z,72.47
2022-09-02T02:48:34.912Z,72.79
2022-09-02T02:51:03.968Z,72.77
2022-09-02T02:53:32.366Z,73.06
2022-09-02T02:56:00.655Z,73.21
2022-09-02T02:58:28.623Z,72.85
2022-09-02T03:00:57.107Z,72.70
2022-09-02T03:03:25.225Z,72.79
2022-09-02T03:05:55.901Z,73.42
2022-09-02T03:08:25.910Z,73.63
2022-09-02T03:10:56.469Z,73.56
2022-09-02T03:13:25.484Z,73.66
2022-09-02T03:15:54.901Z,73.78
2022-09-02T03:18:23.039Z,73.92
2022-09-02T03:20:51.251Z,73.80
2022-09-02T03:23:20.740Z,74.15
2022-09-02T03:25:48.791Z,74.43
2022-09-02T03:28:17.474Z,74.05
2022-09-02T03:30:47.312Z,74.06
2022-09-02T03:33:15.529Z,74.22
2022-09-02T03:35:46.003Z,74.79
2022-09-02T03:38:14.406Z,74.29
2022-09-02T03:40:44.311Z,74.64
2022-09-02T03:43:12.373Z,74.60
2022-09-02T03:45:41.760Z,74.47
2022-09-02T03:48:12.364Z,74.93
2022-09-02T03:50:42.621Z,74.32
2022-09-02T03:53:18.198Z,74.28
2022-09-02T03:55:52.778Z,74.34
2022-09-02T03:58:22.879Z,74.30
2022-09-02T04:00:52.806Z,74.87
2022-09-02T04:03:21.785Z,75.33
2022-09-02T04:05:50.770Z,75.48
2022-09-02T04:08:19.238Z,75.27
2022-09-02T04:10:47.244Z,74.98
2022-09-02T04:13:16.751Z,75.39
2022-09-02T04:15:48.393Z,76.57
2022-09-02T04:18:17.522Z,76.34
2022-09-02T04:20:45.833Z,76.30
2022-09-02T04:23:13.868Z,76.39
2022-09-02T04:25:42.957Z,76.62
2022-09-02T04:28:13.184Z,76.50
2022-09-02T04:30:43.694Z,76.38
2022-09-02T04:33:11.735Z,76.44
2022-09-02T04:35:41.465Z,76.67
2022-09-02T04:38:10.109Z,76.47
2022-09-02T04:40:41.835Z,76.73
2022-09-02T04:43:09.993Z,76.40
2022-09-02T04:45:42.512Z,75.91
2022-09-02T04:48:10.965Z,76.76
2022-09-02T04:50:41.097Z,76.04
2022-09-02T04:53:09.472Z,76.46
2022-09-02T04:55:40.844Z,76.44
2022-09-02T04:58:08.953Z,76.80
2022-09-02T05:00:39.169Z,76.51
2022-09-02T05:03:08.543Z,76.84
2022-09-02T05:05:39.198Z,76.62
2022-09-02T05:08:07.630Z,75.84
2022-09-02T05:10:35.604Z,76.43
2022-09-02T05:13:04.196Z,76.22
2022-09-02T05:15:32.355Z,76.57
2022-09-02T05:18:00.441Z,76.04
2022-09-02T05:20:29.700Z,76.23
2022-09-02T05:22:57.783Z,76.48
2022-09-02T05:25:25.754Z,76.20
2022-09-02T05:27:53.656Z,75.77
2022-09-02T05:30:21.588Z,75.02
2022-09-02T05:32:50.173Z,75.17
2022-09-02T05:35:19.031Z,75.54
2022-09-02T05:37:48.377Z,75.34
2022-09-02T05:40:16.346Z,75.21
2022-09-02T05:42:50.566Z,75.14
2022-09-02T05:45:19.411Z,74.86
2022-09-02T05:47:47.309Z,74.86
2022-09-02T05:50:16.551Z,74.74
2022-09-02T05:52:44.562Z,74.90
2022-09-02T05:55:13.973Z,75.22
2022-09-02T05:57:43.320Z,75.20
2022-09-02T06:00:18.114Z,74.19
2022-09-02T06:02:46.555Z,73.87
2022-09-02T06:05:14.618Z,73.94
2022-09-02T06:07:42.523Z,73.76
2022-09-02T06:10:10.424Z,73.03
2022-09-02T06:12:42.670Z,72.41
2022-09-02T06:15:12.452Z,73.33
2022-09-02T06:17:40.590Z,72.34
2022-09-02T06:20:10.017Z,72.15
2022-09-02T06:22:39.712Z,71.91
2022-09-02T06:25:08.277Z,71.61
2022-09-02T06:27:36.788Z,71.34
2022-09-02T06:30:07.126Z,71.22
2022-09-02T06:32:35.115Z,70.55
2022-09-02T06:35:03.001Z,69.86
2022-09-02T06:37:30.972Z,69.03
2022-09-02T06:39:58.919Z,68.97
2022-09-02T06:42:26.943Z,68.84
2022-09-02T06:44:54.805Z,68.58
2022-09-02T06:47:24.204Z,67.69
2022-09-02T06:49:52.074Z,67.86
2022-09-02T06:52:20.007Z,67.40
2022-09-02T06:54:49.208Z,67.83
2022-09-02T06:57:17.109Z,66.74
2022-09-02T06:59:45.078Z,66.40
2022-09-02T07:02:13.126Z,65.98
2022-09-02T07:05:00.417Z,66.14
2022-09-02T07:07:28.485Z,64.92
2022-09-02T07:09:56.696Z,64.35
2022-09-02T07:12:27.119Z,64.05
2022-09-02T07:14:55.973Z,63.85
2022-09-02T07:17:25.462Z,63.01
2022-09-02T07:19:57.701Z,60.31
2022-09-02T07:22:25.858Z,52.77
2022-09-02T07:24:53.796Z,47.08
2022-09-02T07:27:22.018Z,41.12
2022-09-02T07:29:50.480Z,38.91
2022-09-02T07:32:19.305Z,37.45
2022-09-02T07:34:47.455Z,37.20
2022-09-02T07:37:16.822Z,37.55
2022-09-02T07:39:45.324Z,35.72
2022-09-02T07:42:13.637Z,35.00
2022-09-02T07:44:41.542Z,32.83
2022-09-02T07:47:09.739Z,32.46
2022-09-02T07:52:29.509Z,31.01
2022-09-02T07:54:57.634Z,30.82
2022-09-02T07:57:25.720Z,30.23
2022-09-02T07:59:53.648Z,30.86
2022-09-02T08:02:21.766Z,30.62
2022-09-02T08:04:50.050Z,30.33
2022-09-02T08:07:24.226Z,29.39
2022-09-02T08:09:54.031Z,29.04
2022-09-02T08:12:22.645Z,27.68
2022-09-02T08:14:50.987Z,28.31
2022-09-02T08:17:19.131Z,27.95
2022-09-02T08:19:47.119Z,27.98
2022-09-02T08:22:15.502Z,28.14
2022-09-02T08:24:43.498Z,27.65
2022-09-02T08:27:12.915Z,27.25
2022-09-02T08:29:41.295Z,27.08
2022-09-02T08:32:09.540Z,26.64
2022-09-02T08:34:37.472Z,27.73
2022-09-02T08:37:06.554Z,26.89
2022-09-02T08:39:34.556Z,26.84
2022-09-02T08:42:09.212Z,25.83
2022-09-02T08:44:41.165Z,25.58
2022-09-02T08:47:14.474Z,24.96
2022-09-02T08:49:45.375Z,25.75
2022-09-02T08:52:22.519Z,26.35
2022-09-02T08:54:55.678Z,27.74
2022-09-02T08:57:26.823Z,27.47
2022-09-02T08:59:59.067Z,26.10
2022-09-02T09:02:36.901Z,25.87
2022-09-02T09:05:24.249Z,25.99
2022-09-02T09:08:08.473Z,26.16
2022-09-02T09:10:48.276Z,26.48
2022-09-02T09:13:31.439Z,26.01
2022-09-02T09:16:09.170Z,26.01
2022-09-02T09:18:40.595Z,26.81
2022-09-02T09:21:11.015Z,26.53
2022-09-02T09:23:41.222Z,26.26
2022-09-02T09:26:12.742Z,27.03
2022-09-02T09:28:47.182Z,27.87
2022-09-02T09:31:20.059Z,28.35
2022-09-02T09:34:01.138Z,27.83
2022-09-02T09:36:53.637Z,28.55
2022-09-02T09:39:27.737Z,29.12
2022-09-02T09:41:57.962Z,29.76
2022-09-02T09:44:44.760Z,31.53
2022-09-02T09:47:19.868Z,32.58
2022-09-02T09:49:50.089Z,32.58
2022-09-02T09:52:26.352Z,32.81
2022-09-02T09:55:13.882Z,32.30
2022-09-02T09:57:44.784Z,33.29
2022-09-02T10:00:32.215Z,34.50
2022-09-02T10:03:04.618Z,34.49
2022-09-02T10:05:35.892Z,33.71
2022-09-02T10:08:10.125Z,33.35
2022-09-02T10:10:57.602Z,33.13
2022-09-02T10:13:27.979Z,32.86
2022-09-02T10:16:11.529Z,33.46
2022-09-02T10:18:49.153Z,34.56
2022-09-02T10:21:29.513Z,34.23
2022-09-02T10:24:05.531Z,34.10
2022-09-02T10:26:39.405Z,34.68
2022-09-02T10:29:31.602Z,34.08
2022-09-02T10:32:24.359Z,34.40
2022-09-02T10:35:04.979Z,34.30
2022-09-02T10:37:41.557Z,34.42
2022-09-02T10:40:14.153Z,33.89
2022-09-02T10:42:54.267Z,34.40
2022-09-02T10:45:31.708Z,34.79
2022-09-02T10:48:13.975Z,34.69
2022-09-02T10:50:50.228Z,34.32
2022-09-02T10:53:32.898Z,35.15
2022-09-02T10:56:04.888Z,35.08
2022-09-02T10:58:45.360Z,35.73
2022-09-02T11:01:21.357Z,35.90
2022-09-02T11:04:05.028Z,36.00
2022-09-02T11:07:00.994Z,35.84
2022-09-02T11:09:34.712Z,35.53
2022-09-02T11:12:10.704Z,35.67
2022-09-02T11:14:49.566Z,35.34
2022-09-02T11:17:23.489Z,34.86
2022-09-02T11:19:56.991Z,34.83
2022-09-02T11:22:29.888Z,34.87
2022-09-02T11:25:04.657Z,34.80
2022-09-02T11:27:42.561Z,35.20
2022-09-02T11:30:14.976Z,35.85
2022-09-02T11:32:48.855Z,36.69
2022-09-02T11:35:21.847Z,36.40
2022-09-02T11:37:56.161Z,36.18
2022-09-02T11:40:36.727Z,35.84
2022-09-02T11:43:27.964Z,35.79
2022-09-02T11:46:21.032Z,35.21
2022-09-02T11:49:22.443Z,35.19
2022-09-02T11:52:04.635Z,35.50
2022-09-02T11:54:39.661Z,35.49
2022-09-02T11:57:11.988Z,34.75
2022-09-02T12:00:09.768Z,35.32
2022-09-02T12:02:43.975Z,35.55
2022-09-02T12:05:50.025Z,36.16
2022-09-02T12:09:01.042Z,36.31
2022-09-02T12:11:55.202Z,36.39
2022-09-02T12:15:08.925Z,36.31
2022-09-02T12:17:45.535Z,35.54
2022-09-02T12:20:52.273Z,34.93
2022-09-02T12:23:57.291Z,34.89
2022-09-02T12:26:27.260Z,35.36
2022-09-02T12:29:14.282Z,35.77
2022-09-02T12:31:44.217Z,35.71
2022-09-02T12:34:54.341Z,35.19
2022-09-02T12:37:53.777Z,36.01
2022-09-02T12:40:38.589Z,35.91
2022-09-02T12:43:21.143Z,35.37
2022-09-02T12:45:51.797Z,35.68
2022-09-02T12:48:37.898Z,35.24
2022-09-02T12:51:06.814Z,35.94
2022-09-02T12:53:38.494Z,35.56
2022-09-02T12:56:17.400Z,35.46
2022-09-02T12:58:48.833Z,35.34
2022-09-02T13:01:26.271Z,35.53
2022-09-02T13:04:16.787Z,35.40
2022-09-02T13:07:04.299Z,36.11
2022-09-02T13:10:02.627Z,36.42
2022-09-02T13:13:03.157Z,36.59
2022-09-02T13:15:58.045Z,36.38
2022-09-02T13:19:03.381Z,35.90
2022-09-02T13:21:51.335Z,36.08
2022-09-02T13:24:47.059Z,35.85
2022-09-02T13:27:50.178Z,34.81
2022-09-02T13:30:22.071Z,34.89
2022-09-02T13:32:58.540Z,34.10
2022-09-02T13:35:30.671Z,34.20
2022-09-02T13:38:01.812Z,33.76
2022-09-02T13:40:33.579Z,33.52
2022-09-02T13:43:03.504Z,33.29
2022-09-02T13:45:34.793Z,33.04
2022-09-02T13:48:08.388Z,33.42
2022-09-02T13:50:44.999Z,33.71
2022-09-02T13:56:14.849Z,33.45
2022-09-02T13:58:46.156Z,33.16
2022-09-02T14:01:28.258Z,32.64
2022-09-02T14:03:59.585Z,33.12
2022-09-02T14:06:33.255Z,33.02
2022-09-02T14:09:04.064Z,33.57
2022-09-02T14:11:39.279Z,33.63
2022-09-02T14:14:07.840Z,33.65
2022-09-02T14:16:37.374Z,33.64
2022-09-02T14:19:10.697Z,32.89
2022-09-02T14:21:47.274Z,32.79
2022-09-02T14:24:20.032Z,32.79
2022-09-02T14:26:49.141Z,32.87
2022-09-02T14:29:18.959Z,33.14
2022-09-02T14:31:48.021Z,32.80
2022-09-02T14:34:36.303Z,32.64
2022-09-02T14:37:20.077Z,32.18
2022-09-02T14:40:12.015Z,32.07
2022-09-02T14:42:55.068Z,32.33
2022-09-02T14:45:30.717Z,32.87
2022-09-02T14:48:02.995Z,32.87
2022-09-02T14:50:36.583Z,33.16
2022-09-02T14:53:09.216Z,33.18
2022-09-02T14:55:50.404Z,32.61
2022-09-02T14:58:18.835Z,32.89
2022-09-02T15:00:51.335Z,32.81
2022-09-02T15:03:20.202Z,32.63
2022-09-02T15:05:48.389Z,31.52
2022-09-02T15:08:18.327Z,31.62
2022-09-02T15:10:46.944Z,31.82
2022-09-02T15:13:19.789Z,31.95
2022-09-02T15:15:47.831Z,32.57
2022-09-02T15:18:15.728Z,33.13
2022-09-02T15:20:43.712Z,32.70
2022-09-02T15:23:12.061Z,32.58
2022-09-02T15:25:41.567Z,32.65
2022-09-02T15:28:09.427Z,32.22
2022-09-02T15:30:37.459Z,32.53
2022-09-02T15:33:06.078Z,32.73
2022-09-02T15:35:35.272Z,33.10
2022-09-02T15:38:04.282Z,32.14
2022-09-02T15:40:33.521Z,32.72
2022-09-02T15:43:02.752Z,32.87
2022-09-02T15:45:30.950Z,32.63
2022-09-02T15:47:59.722Z,32.38
2022-09-02T15:50:28.237Z,31.72
2022-09-02T15:52:57.100Z,31.58
2022-09-02T15:55:29.443Z,31.51
2022-09-02T15:57:57.629Z,31.27
2022-09-02T16:00:29.944Z,31.95
2022-09-02T16:03:01.468Z,32.09
2022-09-02T16:05:30.686Z,32.48
2022-09-02T16:07:58.786Z,32.80
2022-09-02T16:10:26.803Z,32.85
2022-09-02T16:12:54.627Z,33.10
2022-09-02T16:15:22.717Z,33.25
2022-09-02T16:17:52.742Z,33.24
2022-09-02T16:20:22.107Z,33.03
2022-09-02T16:22:49.987Z,33.10
2022-09-02T16:25:18.163Z,33.37
2022-09-02T16:27:55.854Z,33.52
2022-09-02T16:30:26.474Z,33.67
2022-09-02T16:32:55.740Z,33.23
2022-09-02T16:35:23.626Z,33.15
2022-09-02T16:37:51.582Z,33.23
2022-09-02T16:40:21.742Z,33.40
2022-09-02T16:42:49.851Z,33.52
2022-09-02T16:45:17.943Z,33.53
2022-09-02T16:47:45.816Z,33.84
2022-09-02T16:50:15.063Z,33.97
2022-09-02T16:52:43.659Z,34.22
2022-09-02T16:55:11.583Z,34.47
2022-09-02T16:57:39.435Z,34.38
2022-09-02T17:00:08.574Z,34.29
2022-09-02T17:02:36.566Z,34.31
2022-09-02T17:05:04.586Z,34.31
2022-09-02T17:07:33.981Z,34.46
2022-09-02T17:10:01.896Z,34.71
2022-09-02T17:12:29.847Z,34.53
2022-09-02T17:14:57.796Z,34.68
2022-09-02T17:17:25.723Z,35.02
2022-09-02T17:19:53.706Z,34.95
2022-09-02T17:22:21.705Z,35.05
2022-09-02T17:24:53.732Z,34.93
2022-09-02T17:27:22.045Z,35.36
2022-09-02T17:29:52.519Z,35.43
2022-09-02T17:32:21.262Z,35.66
2022-09-02T17:34:50.888Z,36.15
2022-09-02T17:37:18.824Z,36.16
2022-09-02T17:39:46.935Z,36.35
2022-09-02T17:42:15.764Z,36.63
2022-09-02T17:44:43.805Z,36.57
2022-09-02T17:47:14.232Z,36.92
2022-09-02T17:49:44.782Z,36.91
2022-09-02T17:52:14.672Z,37.23
2022-09-02T17:54:42.952Z,37.34
2022-09-02T17:57:29.435Z,37.75
2022-09-02T18:00:07.592Z,37.94
2022-09-02T18:03:13.577Z,38.18
2022-09-02T18:05:55.600Z,38.24
2022-09-02T18:08:33.804Z,38.13
2022-09-02T18:11:05.298Z,38.51
2022-09-02T18:13:45.091Z,38.65
2022-09-02T18:16:36.898Z,38.71
2022-09-02T18:19:31.077Z,38.91
2022-09-02T18:22:10.066Z,38.86
2022-09-02T18:24:57.679Z,39.03
2022-09-02T18:27:35.601Z,39.13
2022-09-02T18:30:08.622Z,39.22
2022-09-02T18:32:56.018Z,39.51
2022-09-02T18:35:33.458Z,39.52
2022-09-02T18:38:10.102Z,39.75
2022-09-02T18:40:49.028Z,39.87
2022-09-02T18:43:24.277Z,39.96
2022-09-02T18:45:58.779Z,40.25
2022-09-02T18:48:29.792Z,40.29
2022-09-02T18:50:59.835Z,40.29
2022-09-02T18:53:31.431Z,40.47
2022-09-02T18:56:06.075Z,40.73
2022-09-02T18:58:40.763Z,40.51
2022-09-02T19:01:16.028Z,40.95
2022-09-02T19:03:44.075Z,40.94
2022-09-02T19:06:18.588Z,41.17
2022-09-02T19:08:47.168Z,41.45
2022-09-02T19:11:17.959Z,41.43
2022-09-02T19:13:48.590Z,41.61
2022-09-02T19:16:19.957Z,41.79
2022-09-02T19:18:48.388Z,41.92
2022-09-02T19:21:20.362Z,41.96
2022-09-02T19:23:49.343Z,42.15
2022-09-02T19:26:18.344Z,42.39
2022-09-02T19:28:47.023Z,42.43
2022-09-02T19:31:21.965Z,42.67
2022-09-02T19:33:52.944Z,42.58
2022-09-02T19:36:22.468Z,42.84
2022-09-02T19:38:50.334Z,42.83
2022-09-02T19:41:18.256Z,43.03
2022-09-02T19:43:46.120Z,43.55
2022-09-02T19:46:33.100Z,43.20
2022-09-02T19:49:03.239Z,43.29
2022-09-02T19:51:31.098Z,43.37
2022-09-02T19:54:00.995Z,43.70
2022-09-02T19:56:29.090Z,43.73
2022-09-02T19:58:56.983Z,43.73
2022-09-02T20:01:24.879Z,43.98
2022-09-02T20:03:53.069Z,44.04
2022-09-02T20:06:22.289Z,44.13
2022-09-02T20:08:50.204Z,44.07
2022-09-02T20:11:18.332Z,44.20
2022-09-02T20:13:46.175Z,44.22
2022-09-02T20:16:17.767Z,44.35
2022-09-02T20:18:48.362Z,44.13
2022-09-02T20:21:20.673Z,44.27
2022-09-02T20:23:50.061Z,44.72
2022-09-02T20:26:34.406Z,44.56
2022-09-02T20:29:16.181Z,44.86
2022-09-02T20:31:57.485Z,44.67
2022-09-02T20:34:38.480Z,44.59
2022-09-02T20:37:16.400Z,44.73
2022-09-02T20:39:57.871Z,44.94
2022-09-02T20:42:58.973Z,45.03
2022-09-02T20:45:29.766Z,45.17
2022-09-02T20:48:10.515Z,45.29
2022-09-02T20:50:48.746Z,45.55
2022-09-02T20:53:38.821Z,45.68
2022-09-02T20:56:19.075Z,45.45
2022-09-02T20:58:54.198Z,45.92
2022-09-02T21:01:27.595Z,46.23
2022-09-02T21:04:02.844Z,46.23
2022-09-02T21:06:35.193Z,46.35
2022-09-02T21:09:11.280Z,46.39
2022-09-02T21:11:48.161Z,46.55
2022-09-02T21:14:21.244Z,46.58
2022-09-02T21:16:55.288Z,46.74
2022-09-02T21:19:30.499Z,46.64
2022-09-02T21:22:06.637Z,46.93
2022-09-02T21:24:39.337Z,47.07
2022-09-02T21:27:14.175Z,47.23
2022-09-02T21:29:49.918Z,47.28
2022-09-02T21:32:25.278Z,46.80
2022-09-02T21:34:58.452Z,46.90
2022-09-02T21:37:29.535Z,46.67
2022-09-02T21:40:02.420Z,46.68
2022-09-02T21:42:43.919Z,46.62
2022-09-02T21:45:21.435Z,46.68
2022-09-02T21:47:57.907Z,46.68
2022-09-02T21:50:35.839Z,46.45
2022-09-02T21:53:12.628Z,46.14
2022-09-02T21:55:57.580Z,46.28
2022-09-02T21:58:54.559Z,46.47
2022-09-02T22:01:44.452Z,46.30
2022-09-02T22:04:26.289Z,46.54
2022-09-02T22:07:00.414Z,46.75
2022-09-02T22:09:31.341Z,46.34
2022-09-02T22:12:05.536Z,46.46
2022-09-02T22:14:48.152Z,46.52
2022-09-02T22:17:27.199Z,46.37
2022-09-02T22:19:59.286Z,46.44
2022-09-02T22:22:30.349Z,46.72
2022-09-02T22:24:58.618Z,46.53
2022-09-02T22:27:34.381Z,46.30
2022-09-02T22:30:08.783Z,46.52
2022-09-02T22:32:41.280Z,46.59
2022-09-02T22:35:18.577Z,46.52
2022-09-02T22:37:53.420Z,46.65
2022-09-02T22:40:25.649Z,46.40
2022-09-02T22:42:59.004Z,46.70
2022-09-02T22:45:52.480Z,47.12
2022-09-02T22:48:44.730Z,47.27
2022-09-02T22:51:35.249Z,47.63
2022-09-02T22:54:03.314Z,47.58
2022-09-02T22:56:42.243Z,47.72
2022-09-02T22:59:25.189Z,47.97
2022-09-02T23:02:08.181Z,48.20
2022-09-02T23:04:52.473Z,48.31
2022-09-02T23:07:20.335Z,48.73
2022-09-02T23:09:53.009Z,48.82
2022-09-02T23:12:30.182Z,48.81
2022-09-02T23:15:13.321Z,49.05
2022-09-02T23:17:57.879Z,49.04
2022-09-02T23:20:32.823Z,49.18
2022-09-02T23:23:15.233Z,49.36
2022-09-02T23:25:53.932Z,49.43
2022-09-02T23:28:35.367Z,49.79
2022-09-02T23:31:13.169Z,50.20
2022-09-02T23:33:51.063Z,49.79
2022-09-02T23:36:35.072Z,50.06
2022-09-02T23:39:24.193Z,50.32
2022-09-02T23:41:53.419Z,50.25
2022-09-02T23:44:23.001Z,50.42
2022-09-02T23:47:06.347Z,50.63
2022-09-02T23:49:42.007Z,50.70
2022-09-02T23:52:24.643Z,50.43
2022-09-02T23:55:05.458Z,50.65
2022-09-02T23:57:56.700Z,50.40
